Time;durP1;ratioP1;P1;durP2;ratioP2;P2;SDS_P1;SDS_P2;PMS_P1;PMS_P2;Temp;Humidity;BMP_temperature;BMP_pressure;BME280_temperature;BME280_humidity;BME280_pressure;Samples;Min_cycle;Max_cycle;Signal;HPM_P1;HPM_P2
2022/06/28 00:02:09;;;;;;;10.50;6.20;;;;;;;20.35;64.87;101236.35;107353;1248;63023;-69
2022/06/28 00:04:42;;;;;;;8.00;5.20;;;;;;;20.35;65.33;101236.05;107429;1248;61476;-67
2022/06/28 00:07:13;;;;;;;12.10;5.60;;;;;;;20.32;65.41;101232.80;107184;1247;68659;-67
2022/06/28 00:09:59;;;;;;;10.20;5.40;;;;;;;20.28;65.69;101230.42;107371;1248;74831;-67
2022/06/28 00:12:35;;;;;;;10.50;5.50;;;;;;;20.26;65.80;101225.99;107450;1248;62356;-69
2022/06/28 00:17:57;;;;;;;9.20;5.90;;;;;;;20.22;65.73;101226.14;107503;1247;65153;-69
2022/06/28 00:20:27;;;;;;;11.60;5.20;;;;;;;20.17;65.82;101221.71;107497;1247;61549;-69
2022/06/28 00:22:56;;;;;;;9.50;5.30;;;;;;;20.10;66.12;101217.61;107489;1247;69533;-70
2022/06/28 00:25:25;;;;;;;8.90;5.20;;;;;;;20.05;66.19;101211.13;107402;1247;73840;-71
2022/06/28 00:27:54;;;;;;;8.60;5.30;;;;;;;20.01;66.07;101212.89;107396;1247;60816;-71
2022/06/28 00:30:23;;;;;;;10.20;5.10;;;;;;;19.92;66.93;101215.85;107475;1248;58313;-71
2022/06/28 00:32:52;;;;;;;9.50;5.30;;;;;;;19.87;66.78;101218.09;107366;1248;63035;-71
2022/06/28 00:35:21;;;;;;;7.10;4.90;;;;;;;19.80;67.47;101221.27;107224;1249;72547;-69
2022/06/28 00:37:50;;;;;;;9.90;5.40;;;;;;;19.74;67.61;101224.55;107234;1250;60607;-67
2022/06/28 00:40:20;;;;;;;7.30;5.20;;;;;;;19.65;68.36;101223.54;107157;1251;74896;-67
2022/06/28 00:42:49;;;;;;;12.00;5.60;;;;;;;19.61;68.67;101222.73;107388;1247;59638;-68
2022/06/28 00:45:20;;;;;;;9.00;4.80;;;;;;;19.55;68.93;101221.02;107113;1252;57940;-68
2022/06/28 00:47:50;;;;;;;12.80;6.10;;;;;;;19.56;69.02;101220.18;107359;1246;74740;-67
2022/06/28 00:50:19;;;;;;;12.70;5.40;;;;;;;19.58;68.96;101216.80;107338;1248;72616;-69
2022/06/28 00:53:06;;;;;;;9.40;5.10;;;;;;;19.58;69.19;101214.91;107395;1248;70983;-69
2022/06/28 00:55:35;;;;;;;7.10;4.70;;;;;;;19.54;68.98;101214.73;107396;1250;72729;-69
2022/06/28 00:58:05;;;;;;;9.40;4.90;;;;;;;19.48;69.46;101215.04;107141;1249;59686;-70
2022/06/28 01:00:43;;;;;;;11.90;5.40;;;;;;;19.43;69.83;101210.60;107113;1250;58240;-70
2022/06/28 01:03:19;;;;;;;9.60;5.00;;;;;;;19.39;69.56;101213.27;107001;1251;73603;-67
2022/06/28 01:05:52;;;;;;;11.30;5.10;;;;;;;19.36;69.37;101215.02;107176;1250;72242;-68
2022/06/28 01:08:24;;;;;;;8.80;5.00;;;;;;;19.31;68.65;101215.62;107225;1250;69836;-71
2022/06/28 01:10:53;;;;;;;8.30;5.20;;;;;;;19.24;68.33;101213.16;107132;1250;74011;-71
2022/06/28 01:13:23;;;;;;;9.50;4.90;;;;;;;19.15;69.75;101212.06;107400;1247;59681;-69
2022/06/28 01:15:53;;;;;;;9.40;5.10;;;;;;;19.06;70.80;101212.86;107038;1250;58077;-70
2022/06/28 01:18:22;;;;;;;8.90;5.60;;;;;;;19.03;71.18;101215.45;107276;1250;63660;-69
2022/06/28 01:20:53;;;;;;;6.90;5.10;;;;;;;19.02;71.13;101217.73;107269;1248;72548;-70
2022/06/28 01:23:25;;;;;;;7.60;5.30;;;;;;;19.05;71.29;101217.44;107348;1247;70124;-70
2022/06/28 01:26:01;;;;;;;11.50;4.90;;;;;;;19.05;71.44;101216.67;107224;1247;74449;-69
2022/06/28 01:28:43;;;;;;;7.50;5.40;;;;;;;19.10;71.44;101213.64;107308;1247;62579;-68
2022/06/28 01:31:22;;;;;;;12.10;6.40;;;;;;;19.12;71.22;101216.02;107379;1248;60866;-68
2022/06/28 01:33:53;;;;;;;12.40;5.50;;;;;;;19.15;71.30;101216.23;107160;1251;75091;-67
2022/06/28 01:36:22;;;;;;;8.30;5.50;;;;;;;19.17;71.18;101217.66;107245;1250;61310;-69
2022/06/28 01:38:51;;;;;;;13.10;6.10;;;;;;;19.18;71.09;101219.28;107197;1251;59622;-71
2022/06/28 01:41:32;;;;;;;8.00;5.80;;;;;;;19.19;71.18;101216.54;107234;1249;62412;-71
2022/06/28 01:44:10;;;;;;;9.10;5.40;;;;;;;19.18;71.44;101215.95;107140;1250;59439;-73
2022/06/28 01:46:49;;;;;;;13.30;6.00;;;;;;;19.16;71.22;101217.20;107075;1251;60411;-69
2022/06/28 01:49:19;;;;;;;9.70;5.40;;;;;;;19.13;71.67;101221.36;107310;1250;75060;-69
2022/06/28 01:51:48;;;;;;;10.00;5.80;;;;;;;19.12;71.65;101223.14;107209;1250;72226;-70
2022/06/28 01:54:17;;;;;;;11.00;5.70;;;;;;;19.10;71.30;101223.45;107252;1250;71215;-69
2022/06/28 01:56:46;;;;;;;10.30;6.20;;;;;;;19.06;71.73;101225.08;107168;1251;74740;-74
2022/06/28 01:59:29;;;;;;;11.00;5.80;;;;;;;19.00;72.13;101224.48;107461;1248;62077;-71
2022/06/28 02:02:04;;;;;;;10.40;5.70;;;;;;;19.00;72.08;101225.13;107543;1247;59482;-71
2022/06/28 02:04:46;;;;;;;11.40;5.90;;;;;;;19.02;72.09;101224.09;107287;1250;64762;-70
2022/06/28 02:07:21;;;;;;;7.30;5.00;;;;;;;19.01;72.31;101227.22;107508;1247;72994;-72
2022/06/28 02:09:51;;;;;;;11.50;5.90;;;;;;;18.98;71.98;101226.56;107348;1248;71460;-75
2022/06/28 02:12:20;;;;;;;9.80;5.70;;;;;;;18.96;71.23;101226.13;107188;1247;74602;-71
2022/06/28 02:14:49;;;;;;;7.80;5.60;;;;;;;18.90;72.01;101225.66;107233;1251;59551;-70
2022/06/28 02:17:18;;;;;;;9.20;5.50;;;;;;;18.85;72.27;101227.21;107113;1251;59613;-71
2022/06/28 02:19:47;;;;;;;10.10;6.00;;;;;;;18.79;72.44;101227.13;107057;1250;64704;-71
2022/06/28 02:22:16;;;;;;;9.10;5.30;;;;;;;18.70;73.18;101235.36;107343;1248;71581;-71
2022/06/28 02:24:45;;;;;;;9.30;5.70;;;;;;;18.60;73.78;101236.20;107171;1250;71552;-71
2022/06/28 02:27:15;;;;;;;8.90;5.40;;;;;;;18.58;73.61;101233.35;107092;1249;63190;-74
2022/06/28 02:29:44;;;;;;;8.10;5.50;;;;;;;18.53;74.25;101232.64;107337;1247;61075;-70
2022/06/28 02:32:13;;;;;;;17.20;5.30;;;;;;;18.47;74.44;101229.30;107192;1248;60844;-73
2022/06/28 02:40:23;;;;;;;8.90;5.30;;;;;;;18.41;74.98;101229.73;107295;1247;68406;-71
2022/06/28 02:42:54;;;;;;;12.80;6.00;;;;;;;18.41;74.84;101221.27;107168;1247;74440;-72
2022/06/28 02:45:30;;;;;;;10.90;6.20;;;;;;;18.45;74.66;101224.75;107187;1250;61706;-71
2022/06/28 02:47:59;;;;;;;12.40;6.10;;;;;;;18.47;73.46;101226.29;107200;1250;61326;-71
2022/06/28 02:50:29;;;;;;;10.30;5.50;;;;;;;18.46;72.94;101228.00;107189;1250;64058;-69
2022/06/28 02:52:58;;;;;;;10.70;5.70;;;;;;;18.45;73.85;101230.05;107183;1248;72285;-71
2022/06/28 02:55:28;;;;;;;8.60;5.50;;;;;;;18.45;74.98;101230.23;107432;1250;59101;-72
2022/06/28 02:57:57;;;;;;;13.80;6.60;;;;;;;18.49;75.02;101238.61;107442;1250;71213;-72
2022/06/28 03:00:26;;;;;;;9.90;6.40;;;;;;;18.54;75.03;101239.39;107412;1248;59565;-70
2022/06/28 03:02:56;;;;;;;14.00;6.10;;;;;;;18.61;74.81;101240.95;107498;1247;61642;-70
2022/06/28 03:05:25;;;;;;;10.00;6.10;;;;;;;18.68;74.55;101237.14;107377;1248;64120;-67
2022/06/28 03:07:54;;;;;;;11.40;6.20;;;;;;;18.73;74.37;101230.29;107398;1248;72187;-68
2022/06/28 03:10:25;;;;;;;9.40;5.60;;;;;;;18.78;73.96;101234.20;107340;1249;60074;-72
2022/06/28 03:12:54;;;;;;;16.10;7.00;;;;;;;18.81;73.51;101234.15;107340;1250;62481;-73
2022/06/28 03:15:23;;;;;;;8.10;6.00;;;;;;;18.83;73.71;101231.82;107465;1250;62990;-73
2022/06/28 03:17:59;;;;;;;14.90;6.00;;;;;;;18.85;74.12;101233.07;107502;1247;59565;-72
2022/06/28 03:20:28;;;;;;;15.70;6.00;;;;;;;18.92;73.91;101233.79;107368;1251;63007;-71
2022/06/28 03:22:57;;;;;;;25.50;7.40;;;;;;;18.99;73.79;101234.80;107566;1246;61579;-71
2022/06/28 03:25:28;;;;;;;11.80;6.10;;;;;;;19.09;73.40;101230.40;107265;1247;71440;-73
2022/06/28 03:27:58;;;;;;;16.80;5.60;;;;;;;19.21;73.14;101224.69;107319;1250;74680;-70
2022/06/28 03:30:27;;;;;;;17.00;7.20;;;;;;;19.30;73.00;101225.29;107353;1248;59602;-72
2022/06/28 03:32:56;;;;;;;25.90;17.40;;;;;;;19.41;72.63;101222.09;107467;1247;59514;-72
2022/06/28 03:35:29;;;;;;;15.50;6.80;;;;;;;19.54;71.67;101224.84;107428;1247;73628;-74
2022/06/28 03:37:57;;;;;;;12.10;6.70;;;;;;;19.66;71.47;101229.98;107292;1248;71409;-71
2022/06/28 03:40:46;;;;;;;8.60;6.10;;;;;;;19.81;71.11;101234.45;107137;1250;59293;-71
2022/06/28 03:43:15;;;;;;;13.50;6.60;;;;;;;19.95;70.54;101238.83;107194;1250;62480;-69
2022/06/28 03:45:44;;;;;;;12.40;6.10;;;;;;;20.07;70.58;101242.30;107357;1247;58442;-71
2022/06/28 03:48:43;;;;;;;11.60;7.20;;;;;;;20.26;70.31;101242.13;107500;1247;61269;-71
2022/06/28 03:52:05;;;;;;;10.60;7.10;;;;;;;20.49;70.07;101244.50;107548;1248;75341;-70
2022/06/28 03:54:48;;;;;;;12.30;7.50;;;;;;;20.59;69.88;101243.21;107462;1248;72258;-68
2022/06/28 03:57:27;;;;;;;11.00;7.30;;;;;;;20.71;69.86;101245.71;107182;1247;71481;-72
2022/06/28 03:59:56;;;;;;;9.80;7.10;;;;;;;20.79;69.83;101240.08;107396;1247;74319;-71
2022/06/28 04:02:25;;;;;;;14.80;7.80;;;;;;;20.86;69.77;101238.60;107362;1247;62516;-73
2022/06/28 04:04:55;;;;;;;15.80;7.80;;;;;;;20.91;69.69;101235.57;107028;1247;682194;-72
2022/06/28 04:07:25;;;;;;;15.40;6.90;;;;;;;21.00;69.67;101236.01;107661;1248;63936;-71
2022/06/28 04:09:53;;;;;;;13.10;7.90;;;;;;;21.17;69.28;101240.33;107543;1248;71447;-70
2022/06/28 04:12:22;;;;;;;17.60;7.70;;;;;;;21.24;68.90;101238.48;107545;1248;70880;-71
2022/06/28 04:14:52;;;;;;;12.60;7.90;;;;;;;21.26;68.69;101242.52;107539;1247;63013;-71
2022/06/28 04:17:22;;;;;;;12.50;7.90;;;;;;;21.29;68.46;101243.29;107624;1248;62141;-72
2022/06/28 04:20:14;;;;;;;14.80;8.70;;;;;;;21.31;68.45;101243.29;107539;1247;60704;-72
2022/06/28 04:22:55;;;;;;;14.90;9.00;;;;;;;21.26;68.75;101240.26;107583;1247;64885;-71
2022/06/28 04:25:24;;;;;;;10.00;7.20;;;;;;;21.21;68.97;101240.78;107583;1247;69657;-73
2022/06/28 04:27:56;;;;;;;14.60;8.10;;;;;;;21.18;69.15;101238.48;107548;1247;70525;-72
2022/06/28 04:30:25;;;;;;;16.80;9.40;;;;;;;21.11;69.31;101235.16;107580;1247;62988;-73
2022/06/28 04:32:58;;;;;;;13.90;8.20;;;;;;;21.13;69.28;101234.61;107684;1247;58999;-70
2022/06/28 04:35:30;;;;;;;16.00;8.90;;;;;;;21.21;69.27;101233.70;107636;1247;61233;-71
2022/06/28 04:38:01;;;;;;;17.10;8.80;;;;;;;21.25;69.55;101234.70;107427;1249;63453;-71
2022/06/28 04:40:57;;;;;;;12.60;8.20;;;;;;;21.31;69.19;101231.18;107628;1247;71097;-69
2022/06/28 04:44:19;;;;;;;14.00;9.00;;;;;;;21.45;69.01;101220.79;107184;1247;71237;-76
2022/06/28 04:46:53;;;;;;;13.60;8.80;;;;;;;21.58;68.49;101220.79;107599;1247;74762;-74
2022/06/28 04:49:23;;;;;;;12.90;8.40;;;;;;;21.76;68.18;101225.32;107666;1247;59587;-72
2022/06/28 04:51:57;;;;;;;11.40;8.70;;;;;;;21.99;67.50;101228.42;107341;1251;60357;-70
2022/06/28 04:54:31;;;;;;;13.30;8.80;;;;;;;22.16;66.94;101225.98;107473;1248;63823;-71
2022/06/28 04:57:18;;;;;;;15.90;9.20;;;;;;;22.24;66.34;101232.92;107517;1247;61453;-75
2022/06/28 04:59:52;;;;;;;16.80;10.60;;;;;;;22.17;66.56;101236.67;107414;1248;70227;-75
2022/06/28 05:02:32;;;;;;;19.50;9.30;;;;;;;22.22;66.47;101244.84;107631;1247;64530;-76
2022/06/28 05:05:07;;;;;;;16.70;9.50;;;;;;;22.20;66.58;101245.74;107589;1248;59505;-76
2022/06/28 05:07:39;;;;;;;13.60;8.60;;;;;;;22.35;66.22;101249.23;107693;1247;60426;-73
2022/06/28 05:10:12;;;;;;;16.10;9.30;;;;;;;22.53;65.63;101246.09;107672;1247;63625;-72
2022/06/28 05:12:47;;;;;;;13.40;7.90;;;;;;;22.58;65.42;101243.73;107670;1247;60857;-74
2022/06/28 05:15:16;;;;;;;12.00;8.60;;;;;;;22.67;65.04;101244.44;107560;1247;60158;-74
2022/06/28 05:18:02;;;;;;;15.50;8.90;;;;;;;22.75;64.71;101247.29;107551;1248;74063;-78
2022/06/28 05:20:31;;;;;;;18.00;9.30;;;;;;;22.89;64.51;101245.33;107331;1248;59642;-83
2022/06/28 05:23:00;;;;;;;15.10;8.40;;;;;;;23.07;64.02;101240.16;107407;1250;58705;-68
2022/06/28 05:26:10;;;;;;;13.60;8.30;;;;;;;23.31;62.90;101239.48;107440;1247;63803;-69
2022/06/28 05:28:44;;;;;;;17.00;8.40;;;;;;;23.55;61.77;101236.14;107256;1247;72580;-75
2022/06/28 05:31:13;;;;;;;16.70;7.70;;;;;;;23.83;61.30;101231.75;107173;1247;61254;-68
2022/06/28 05:33:42;;;;;;;16.50;7.70;;;;;;;23.97;60.36;101228.98;107460;1247;74379;-74
2022/06/28 05:36:11;;;;;;;16.80;7.40;;;;;;;23.90;60.06;101228.36;107401;1248;59688;-72
2022/06/28 05:38:40;;;;;;;11.50;7.40;;;;;;;24.16;59.80;101227.61;107367;1247;59619;-67
2022/06/28 05:41:10;;;;;;;14.80;7.30;;;;;;;24.42;59.68;101224.48;107245;1250;63789;-81
2022/06/28 05:43:40;;;;;;;11.80;7.30;;;;;;;24.64;59.41;101230.67;107242;1248;61691;-76
2022/06/28 05:46:09;;;;;;;18.20;8.80;;;;;;;24.74;58.26;101226.34;107343;1249;60028;-78
2022/06/28 05:48:38;;;;;;;12.20;6.20;;;;;;;24.82;57.61;101220.53;107370;1247;63240;-79
2022/06/28 05:51:07;;;;;;;12.50;6.60;;;;;;;24.99;56.83;101219.31;107268;1248;59830;-79
2022/06/28 05:53:36;;;;;;;8.60;6.20;;;;;;;24.98;56.72;101222.85;107410;1250;60702;-79
2022/06/28 05:56:05;;;;;;;15.30;7.00;;;;;;;25.08;56.06;101223.40;107188;1248;74980;-77
2022/06/28 05:58:34;;;;;;;9.50;6.10;;;;;;;25.23;55.74;101227.59;107468;1248;72848;-76
2022/06/28 06:01:06;;;;;;;9.10;6.60;;;;;;;25.32;55.27;101227.83;107256;1250;60304;-80
2022/06/28 06:03:35;;;;;;;11.20;6.20;;;;;;;25.26;55.50;101226.66;107232;1248;71789;-80
2022/06/28 06:06:05;;;;;;;14.10;6.50;;;;;;;25.33;55.65;101223.15;107466;1248;59720;-78
2022/06/28 06:08:35;;;;;;;11.80;5.70;;;;;;;25.50;55.01;101221.07;107484;1247;59567;-79
2022/06/28 06:11:09;;;;;;;10.50;6.30;;;;;;;25.64;52.59;101221.40;107514;1248;63576;-77
2022/06/28 06:13:43;;;;;;;10.90;6.00;;;;;;;25.64;51.91;101219.26;107253;1250;61618;-75
2022/06/28 06:16:12;;;;;;;9.90;5.70;;;;;;;25.75;52.29;101220.16;107311;1247;68442;-81
2022/06/28 06:18:42;;;;;;;12.00;5.90;;;;;;;25.85;51.48;101220.83;107501;1247;72501;-78
2022/06/28 06:21:11;;;;;;;9.10;6.30;;;;;;;25.93;50.63;101223.55;107310;1250;59641;-78
2022/06/28 06:23:40;;;;;;;13.40;5.90;;;;;;;26.01;50.49;101222.58;107563;1247;60546;-77
2022/06/28 06:26:46;;;;;;;9.90;4.90;;;;;;;26.21;50.18;101231.65;107605;1247;74625;-77
2022/06/28 06:29:15;;;;;;;10.00;4.50;;;;;;;26.30;48.81;101228.91;107401;1247;72807;-77
2022/06/28 06:31:44;;;;;;;9.10;5.00;;;;;;;26.44;48.65;101224.94;107454;1248;70112;-75
2022/06/28 06:34:32;;;;;;;8.50;4.40;;;;;;;26.53;47.81;101223.56;107587;1247;63801;-78
2022/06/28 06:37:05;;;;;;;7.70;4.70;;;;;;;26.70;47.72;101221.44;107290;1250;60340;-79
2022/06/28 06:39:34;;;;;;;9.30;4.20;;;;;;;26.80;46.27;101219.42;107437;1248;60918;-77
2022/06/28 06:42:04;;;;;;;8.80;4.40;;;;;;;26.80;45.09;101221.48;107473;1251;64339;-78
2022/06/28 06:44:37;;;;;;;8.50;4.60;;;;;;;26.64;45.38;101218.83;107437;1250;71717;-78
2022/06/28 06:47:09;;;;;;;7.70;4.30;;;;;;;26.92;45.72;101218.98;107118;1251;71523;-81
2022/06/28 06:49:39;;;;;;;6.70;4.10;;;;;;;27.12;46.21;101213.54;107226;1251;63641;-75
2022/06/28 06:52:09;;;;;;;6.70;4.90;;;;;;;27.26;44.66;101217.13;107336;1247;60412;-78
2022/06/28 06:54:41;;;;;;;7.70;4.10;;;;;;;27.41;44.84;101217.09;107634;1247;60305;-78
2022/06/28 06:57:10;;;;;;;10.80;4.10;;;;;;;27.60;44.02;101214.79;107568;1248;74174;-79
2022/06/28 06:59:39;;;;;;;15.70;4.20;;;;;;;27.77;43.45;101211.51;107648;1247;71745;-80
2022/06/28 07:02:08;;;;;;;7.50;4.30;;;;;;;27.78;42.63;101212.08;107560;1247;70976;-78
2022/06/28 07:04:48;;;;;;;5.50;4.40;;;;;;;27.66;42.71;101211.23;107404;1248;74355;-79
2022/06/28 07:07:18;;;;;;;5.20;4.20;;;;;;;27.72;42.30;101210.52;107517;1248;59555;-78
2022/06/28 07:09:49;;;;;;;6.10;4.20;;;;;;;27.72;42.63;101207.95;107652;1248;57849;-83
2022/06/28 07:12:18;;;;;;;9.30;4.30;;;;;;;27.88;42.99;101205.17;107478;1248;73095;-82
2022/06/28 07:14:47;;;;;;;6.90;3.40;;;;;;;28.04;42.50;101206.26;107486;1248;71388;-80
2022/06/28 07:17:17;;;;;;;8.10;3.90;;;;;;;28.11;41.34;101208.02;107622;1247;60436;-78
2022/06/28 07:19:48;;;;;;;7.40;3.90;;;;;;;28.30;40.13;101205.85;107592;1247;72911;-79
2022/06/28 07:22:19;;;;;;;4.40;3.80;;;;;;;28.43;40.48;101202.73;107532;1248;59677;-78
2022/06/28 07:24:53;;;;;;;5.00;3.30;;;;;;;28.48;39.27;101205.09;107227;1253;57985;-81
2022/06/28 07:27:23;;;;;;;5.00;3.50;;;;;;;28.38;39.05;101202.42;107290;1253;63791;-79
2022/06/28 07:29:52;;;;;;;5.40;2.70;;;;;;;28.47;39.24;101202.74;107341;1250;72317;-80
2022/06/28 07:32:21;;;;;;;8.60;4.20;;;;;;;28.55;39.30;101199.84;107138;1251;70453;-80
2022/06/28 07:34:50;;;;;;;6.50;3.80;;;;;;;28.67;39.10;101202.69;107359;1250;73805;-80
2022/06/28 07:37:19;;;;;;;8.30;3.70;;;;;;;28.66;37.84;101203.27;107209;1251;62340;-82
2022/06/28 07:39:53;;;;;;;5.00;3.40;;;;;;;28.86;38.20;101206.05;107180;1250;61772;-79
2022/06/28 07:42:41;;;;;;;3.70;3.00;;;;;;;28.99;37.88;101205.67;107271;1251;74481;-81
2022/06/28 07:45:40;;;;;;;8.70;3.70;;;;;;;28.96;37.47;101205.58;107476;1251;61251;-78
2022/06/28 07:48:12;;;;;;;5.30;3.30;;;;;;;29.00;36.36;101206.66;107374;1253;59282;-78
2022/06/28 07:53:29;;;;;;;7.70;3.20;;;;;;;29.11;36.80;101204.23;107248;1251;59649;-78
2022/06/28 07:56:16;;;;;;;8.00;3.10;;;;;;;29.02;36.64;101202.70;107556;1247;59376;-81
2022/06/28 07:58:45;;;;;;;4.90;3.00;;;;;;;29.22;36.85;101197.30;107504;1250;62930;-78
2022/06/28 08:01:19;;;;;;;4.60;3.10;;;;;;;29.39;36.32;101193.65;107688;1247;71395;-81
2022/06/28 08:03:48;;;;;;;8.50;3.40;;;;;;;29.38;36.51;101193.38;107817;1247;59820;-79
2022/06/28 08:06:17;;;;;;;5.00;3.70;;;;;;;29.43;36.55;101193.23;107324;1250;63373;-77
2022/06/28 08:08:53;;;;;;;7.10;3.10;;;;;;;29.58;35.83;101193.38;107445;1250;58902;-79
2022/06/28 08:11:23;;;;;;;6.80;3.30;;;;;;;29.72;34.85;101190.95;107598;1248;58429;-78
2022/06/28 08:13:55;;;;;;;3.60;2.70;;;;;;;29.76;34.12;101180.83;107820;1247;63738;-80
2022/06/28 08:16:26;;;;;;;;;;;;;;;29.71;33.81;101183.54;107783;1247;61574;-78
2022/06/28 08:18:55;;;;;;;4.70;3.40;;;;;;;29.80;33.41;101180.73;107749;1248;60000;-76
2022/06/28 08:21:32;;;;;;;4.30;2.70;;;;;;;29.80;32.85;101174.05;107522;1247;73986;-77
2022/06/28 08:24:01;;;;;;;3.40;2.40;;;;;;;29.97;32.91;101173.11;107736;1247;59572;-79
2022/06/28 08:26:30;;;;;;;3.50;3.20;;;;;;;30.12;32.32;101173.42;107574;1247;59904;-80
2022/06/28 08:29:05;;;;;;;4.50;2.80;;;;;;;30.08;32.03;101169.16;107601;1248;73802;-78
2022/06/28 08:31:34;;;;;;;5.10;3.00;;;;;;;30.05;31.52;101173.23;107507;1247;71120;-80
2022/06/28 08:34:06;;;;;;;6.80;2.90;;;;;;;29.99;31.58;101172.52;107467;1250;60459;-78
2022/06/28 08:36:35;;;;;;;;;;;;;;;29.99;31.55;101168.85;107554;1248;63241;-79
2022/06/28 08:39:05;;;;;;;7.70;2.90;;;;;;;29.96;31.74;101170.34;107627;1247;59697;-77
2022/06/28 08:41:35;;;;;;;4.10;2.80;;;;;;;30.00;31.42;101163.63;107351;1248;59557;-80
2022/06/28 08:44:04;;;;;;;4.30;2.90;;;;;;;30.07;31.31;101162.29;107652;1247;74384;-80
2022/06/28 08:46:34;;;;;;;5.50;2.70;;;;;;;30.08;30.72;101165.61;107554;1247;72781;-80
2022/06/28 08:49:19;;;;;;;5.90;2.70;;;;;;;30.03;30.55;101160.09;107326;1250;60068;-82
2022/06/28 08:51:48;;;;;;;6.20;2.60;;;;;;;30.16;30.73;101155.29;107515;1247;73956;-78
2022/06/28 08:54:19;;;;;;;7.10;2.90;;;;;;;30.32;30.09;101151.75;107438;1248;61050;-82
2022/06/28 08:56:50;;;;;;;4.00;2.60;;;;;;;30.37;29.94;101155.44;107380;1247;61914;-81
2022/06/28 08:59:19;;;;;;;5.90;2.70;;;;;;;30.47;30.42;101148.89;107456;1247;75887;-78
2022/06/28 09:01:50;;;;;;;4.00;2.60;;;;;;;30.47;30.17;101151.39;107568;1249;61377;-77
2022/06/28 09:04:19;;;;;;;4.60;2.50;;;;;;;30.60;30.39;101155.15;107518;1250;59222;-79
2022/06/28 09:06:48;;;;;;;3.60;2.70;;;;;;;30.71;30.45;101154.02;107419;1247;63266;-80
2022/06/28 09:09:17;;;;;;;4.20;2.40;;;;;;;30.63;29.90;101156.10;107537;1247;59522;-78
2022/06/28 09:11:50;;;;;;;6.10;2.60;;;;;;;30.75;29.36;101151.11;107423;1249;60483;-79
2022/06/28 09:14:23;;;;;;;3.10;2.40;;;;;;;30.78;28.77;101148.74;107333;1248;64323;-80
2022/06/28 09:16:53;;;;;;;3.20;2.30;;;;;;;30.69;28.03;101146.60;107613;1248;61639;-79
2022/06/28 09:19:40;;;;;;;3.40;2.40;;;;;;;30.71;28.26;101144.21;107249;1250;71670;-79
2022/06/28 09:22:09;;;;;;;2.70;2.20;;;;;;;30.93;28.02;101141.83;107527;1247;73284;-81
2022/06/28 09:24:45;;;;;;;6.30;2.50;;;;;;;31.11;27.36;101132.36;107491;1248;61817;-78
2022/06/28 09:27:31;;;;;;;6.80;2.40;;;;;;;31.27;27.52;101135.98;107496;1247;59493;-79
2022/06/28 09:30:13;;;;;;;3.90;2.20;;;;;;;31.32;27.44;101135.17;107331;1249;74323;-80
2022/06/28 09:32:42;;;;;;;3.20;2.30;;;;;;;31.33;27.33;101137.87;107585;1247;61502;-78
2022/06/28 09:35:12;;;;;;;3.50;2.50;;;;;;;31.35;27.12;101126.83;107511;1247;70638;-80
2022/06/28 09:37:50;;;;;;;4.90;2.20;;;;;;;31.39;27.26;101124.11;107526;1250;63633;-81
2022/06/28 09:40:29;;;;;;;5.60;2.40;;;;;;;31.64;26.77;101124.50;107725;1247;59659;-81
2022/06/28 09:43:15;;;;;;;2.50;1.90;;;;;;;31.62;26.09;101126.18;107474;1247;59645;-75
2022/06/28 09:45:46;;;;;;;2.90;2.00;;;;;;;31.70;25.86;101118.77;107467;1248;64374;-77
2022/06/28 09:48:20;;;;;;;3.00;2.40;;;;;;;31.88;26.12;101118.08;107518;1248;61664;-79
2022/06/28 09:50:58;;;;;;;4.60;2.40;;;;;;;32.00;25.56;101114.55;107397;1249;60195;-80
2022/06/28 09:53:30;;;;;;;2.60;2.00;;;;;;;31.99;26.05;101107.77;107554;1247;73126;-82
2022/06/28 09:56:08;;;;;;;5.20;2.70;;;;;;;31.92;26.63;101112.63;107498;1247;61486;-83
2022/06/28 09:58:38;;;;;;;4.00;2.30;;;;;;;31.99;26.75;101111.67;107681;1247;59557;-80
2022/06/28 10:01:08;;;;;;;6.00;2.10;;;;;;;31.99;26.27;101110.92;107457;1248;62891;-81
2022/06/28 10:03:38;;;;;;;3.20;1.90;;;;;;;31.70;25.94;101114.46;107514;1247;61930;-80
2022/06/28 10:06:12;;;;;;;9.10;2.60;;;;;;;31.70;26.28;101115.87;107423;1247;70595;-82
2022/06/28 10:08:42;;;;;;;8.20;2.70;;;;;;;31.82;26.28;101119.36;107581;1247;75883;-79
2022/06/28 10:11:12;;;;;;;4.90;2.40;;;;;;;31.99;26.11;101118.16;107629;1247;61220;-81
2022/06/28 10:17:05;;;;;;;6.60;2.60;;;;;;;32.76;25.35;101103.69;107797;1247;74847;-81
2022/06/28 10:19:34;;;;;;;5.60;2.30;;;;;;;32.84;24.90;101106.19;107410;1247;71041;-78
2022/06/28 10:22:11;;;;;;;6.00;2.30;;;;;;;32.83;24.86;101104.17;107552;1247;70105;-82
2022/06/28 10:24:56;;;;;;;3.30;2.50;;;;;;;32.76;25.23;101099.58;107505;1248;63994;-82
2022/06/28 10:27:28;;;;;;;7.60;2.60;;;;;;;32.80;25.46;101090.94;107506;1248;59657;-84
2022/06/28 10:30:00;;;;;;;6.30;2.40;;;;;;;32.76;25.21;101091.75;107427;1248;59568;-80
2022/06/28 10:32:51;;;;;;;3.10;2.30;;;;;;;32.91;24.66;101089.27;107623;1248;63751;-80
2022/06/28 10:35:29;;;;;;;4.80;2.30;;;;;;;32.92;24.32;101081.27;107631;1247;71400;-81
2022/06/28 10:38:09;;;;;;;3.20;2.20;;;;;;;33.29;24.22;101073.13;107657;1247;59832;-80
2022/06/28 10:40:50;;;;;;;3.80;2.10;;;;;;;33.68;23.25;101074.66;107621;1246;63626;-79
2022/06/28 10:43:28;;;;;;;4.20;2.10;;;;;;;33.51;23.18;101082.39;107582;1247;61338;-81
2022/06/28 10:46:00;;;;;;;4.00;2.00;;;;;;;33.40;22.73;101083.34;107413;1247;60381;-82
2022/06/28 10:49:06;;;;;;;4.20;2.20;;;;;;;33.64;22.33;101076.18;107671;1247;75863;-83
2022/06/28 10:52:00;;;;;;;4.20;2.40;;;;;;;33.97;22.11;101074.52;107269;1249;71915;-75
2022/06/28 10:54:34;;;;;;;9.90;5.60;;;;;;;34.23;22.23;101077.15;107552;1247;70945;-79
2022/06/28 10:57:30;;;;;;;5.20;2.60;;;;;;;34.44;22.15;101070.27;107457;1248;65137;-81
2022/06/28 11:00:05;;;;;;;5.70;2.20;;;;;;;34.75;21.56;101067.84;107401;1249;59640;-79
2022/06/28 11:03:03;;;;;;;3.10;2.00;;;;;;;34.69;21.66;101066.24;107631;1247;59615;-77
2022/06/28 11:05:52;;;;;;;4.90;2.30;;;;;;;34.57;21.95;101063.34;107523;1247;63771;-83
2022/06/28 11:08:49;;;;;;;2.40;1.90;;;;;;;34.68;22.03;101054.23;107471;1248;71754;-83
2022/06/28 11:11:18;;;;;;;4.20;2.10;;;;;;;35.18;21.17;101053.30;107620;1247;71062;-81
2022/06/28 11:13:48;;;;;;;2.90;1.90;;;;;;;35.88;20.87;101056.33;107399;1250;65363;-80
2022/06/28 11:16:50;;;;;;;3.60;1.80;;;;;;;36.08;19.71;101062.93;107478;1247;60956;-82
2022/06/28 11:19:21;;;;;;;4.70;1.90;;;;;;;35.95;19.66;101061.70;107498;1248;61867;-82
2022/06/28 11:21:55;;;;;;;4.80;1.90;;;;;;;35.86;19.42;101056.66;107442;1247;74416;-81
2022/06/28 11:24:26;;;;;;;3.70;1.90;;;;;;;35.89;19.60;101053.58;108009;1247;61151;-81
2022/06/28 11:27:21;;;;;;;3.50;1.90;;;;;;;35.36;19.69;101048.52;107707;1247;70407;-79
2022/06/28 11:29:59;;;;;;;4.40;1.90;;;;;;;35.81;19.32;101050.80;107527;1247;73451;-75
2022/06/28 11:32:32;;;;;;;4.00;2.10;;;;;;;35.31;19.58;101043.84;107521;1247;60733;-80
2022/06/28 11:35:29;;;;;;;3.70;2.00;;;;;;;36.12;19.48;101048.14;107514;1247;61369;-82
2022/06/28 11:38:02;;;;;;;5.70;2.20;;;;;;;35.68;19.51;101054.14;107689;1247;65278;-82
2022/06/28 11:40:51;;;;;;;2.50;1.70;;;;;;;36.01;18.47;101054.39;107677;1247;60859;-79
2022/06/28 11:43:27;;;;;;;4.20;2.00;;;;;;;35.82;18.72;101049.44;107398;1247;69810;-83
2022/06/28 11:45:57;;;;;;;3.00;1.80;;;;;;;36.19;18.38;101045.64;107633;1247;63651;-81
2022/06/28 11:48:35;;;;;;;5.40;2.00;;;;;;;36.70;17.47;101043.98;107451;1247;61313;-81
2022/06/28 11:51:04;;;;;;;7.70;1.90;;;;;;;37.16;17.27;101047.47;107825;1248;57779;-79
2022/06/28 11:53:45;;;;;;;6.40;2.20;;;;;;;37.50;17.16;101033.29;107540;1249;62921;-82
2022/06/28 11:56:14;;;;;;;2.80;1.80;;;;;;;37.34;17.38;101028.73;107507;1248;61972;-82
2022/06/28 11:58:47;;;;;;;2.80;1.60;;;;;;;37.14;17.73;101035.01;107567;1247;71721;-81
2022/06/28 12:01:27;;;;;;;3.10;1.50;;;;;;;37.41;17.35;101032.13;107265;1247;65198;-81